createdAt,value
2022-12-10T05:30:38.137Z,1.12
2022-12-10T05:31:38.028Z,1.24
2022-12-10T05:32:37.996Z,1.30
2022-12-10T05:33:38.002Z,1.24
2022-12-10T05:34:37.959Z,1.27
2022-12-10T05:35:37.956Z,1.22
2022-12-10T05:36:37.961Z,1.18
2022-12-10T05:37:37.965Z,1.16
2022-12-10T05:38:37.922Z,1.14
2022-12-10T05:39:37.938Z,1.14
2022-12-10T05:40:37.898Z,1.11
2022-12-10T05:41:37.935Z,1.09
2022-12-10T05:42:37.878Z,1.11
2022-12-10T05:43:37.872Z,1.12
2022-12-10T05:44:37.955Z,1.11
2022-12-10T05:45:37.852Z,1.02
2022-12-10T05:46:37.968Z,1.05
2022-12-10T05:47:37.845Z,1.15
2022-12-10T05:48:37.817Z,1.12
2022-12-10T05:49:37.894Z,1.05
2022-12-10T05:50:37.819Z,1.11
2022-12-10T05:51:37.790Z,0.98
2022-12-10T05:52:37.772Z,0.97
2022-12-10T05:53:37.768Z,0.96
2022-12-10T05:54:37.750Z,1.05
2022-12-10T05:55:37.811Z,1.00
2022-12-10T05:56:37.739Z,1.14
2022-12-10T05:57:37.734Z,1.12
2022-12-10T05:58:37.706Z,1.15
2022-12-10T05:59:37.718Z,1.14
2022-12-10T06:00:37.770Z,0.98
2022-12-10T06:01:37.683Z,0.90
2022-12-10T06:02:37.714Z,0.96
2022-12-10T06:03:37.659Z,1.00
2022-12-10T06:04:37.716Z,1.06
2022-12-10T06:05:37.636Z,1.11
2022-12-10T06:06:37.675Z,1.16
2022-12-10T06:07:37.627Z,1.14
2022-12-10T06:08:37.605Z,1.22
2022-12-10T06:09:37.589Z,1.27
2022-12-10T06:10:37.594Z,1.26
2022-12-10T06:11:37.569Z,1.23
2022-12-10T06:12:37.690Z,1.15
2022-12-10T06:13:37.583Z,1.18
2022-12-10T06:14:37.560Z,1.27
2022-12-10T06:15:37.525Z,1.29
2022-12-10T06:16:37.512Z,1.30
2022-12-10T06:17:37.508Z,1.29
2022-12-10T06:18:37.513Z,1.27
2022-12-10T06:19:37.550Z,1.29
2022-12-10T06:20:37.471Z,1.24
2022-12-10T06:21:37.482Z,1.18
2022-12-10T06:22:37.454Z,1.20
2022-12-10T06:23:37.443Z,1.27
2022-12-10T06:24:37.429Z,1.24
2022-12-10T06:25:37.549Z,1.22
2022-12-10T06:26:37.433Z,1.30
2022-12-10T06:27:37.407Z,1.26
2022-12-10T06:28:37.456Z,1.34
2022-12-10T06:29:37.378Z,1.37
2022-12-10T06:30:37.358Z,1.33
2022-12-10T06:31:37.455Z,1.36
2022-12-10T06:32:37.354Z,1.33
2022-12-10T06:33:37.340Z,1.37
2022-12-10T06:34:42.582Z,1.41
2022-12-10T06:35:38.308Z,1.42
2022-12-10T06:36:37.330Z,1.42
2022-12-10T06:37:37.346Z,1.42
2022-12-10T06:38:37.285Z,1.40
2022-12-10T06:39:37.266Z,1.37
2022-12-10T06:40:37.259Z,1.44
2022-12-10T06:41:37.246Z,1.44
2022-12-10T06:42:37.263Z,1.44
2022-12-10T06:43:37.285Z,1.47
2022-12-10T06:44:37.210Z,1.44
2022-12-10T06:45:37.214Z,1.34
2022-12-10T06:46:37.255Z,1.41
2022-12-10T06:47:42.772Z,1.37
2022-12-10T06:48:38.165Z,1.33
2022-12-10T06:49:37.209Z,1.36
2022-12-10T06:50:37.171Z,1.34
2022-12-10T06:51:37.137Z,1.37
2022-12-10T06:52:37.125Z,1.36
2022-12-10T06:53:37.135Z,1.40
2022-12-10T06:54:37.103Z,1.40
2022-12-10T06:55:37.156Z,1.40
2022-12-10T06:56:37.109Z,1.41
2022-12-10T06:57:37.084Z,1.33
2022-12-10T06:58:37.059Z,1.30
2022-12-10T06:59:37.047Z,1.36
2022-12-10T07:00:37.039Z,1.26
2022-12-10T07:01:37.143Z,1.33
2022-12-10T07:02:37.133Z,1.33
2022-12-10T07:03:37.009Z,1.33
2022-12-10T07:04:36.999Z,1.34
2022-12-10T07:05:36.981Z,1.41
2022-12-10T07:06:36.993Z,1.40
2022-12-10T07:07:37.008Z,1.36
2022-12-10T07:08:36.976Z,1.41
2022-12-10T07:09:36.954Z,1.40
2022-12-10T07:10:36.931Z,1.47
2022-12-10T07:11:36.924Z,1.42
2022-12-10T07:12:36.911Z,1.41
2022-12-10T07:13:36.908Z,1.44
2022-12-10T07:14:36.910Z,1.34
2022-12-10T07:15:36.872Z,1.34
2022-12-10T07:16:36.942Z,1.42
2022-12-10T07:17:36.855Z,1.37
2022-12-10T07:18:36.847Z,1.40
2022-12-10T07:19:36.904Z,1.44
2022-12-10T07:20:36.829Z,1.42
2022-12-10T07:21:36.810Z,1.42
2022-12-10T07:22:36.816Z,1.42
2022-12-10T07:23:36.799Z,1.44
2022-12-10T07:24:36.837Z,1.34
2022-12-10T07:25:36.803Z,1.37
2022-12-10T07:26:36.775Z,1.42
2022-12-10T07:27:36.749Z,1.37
2022-12-10T07:28:44.035Z,1.44
2022-12-10T07:29:37.746Z,1.44
2022-12-10T07:30:36.721Z,1.42
2022-12-10T07:31:36.825Z,1.42
2022-12-10T07:32:36.697Z,1.36
2022-12-10T07:33:36.697Z,1.44
2022-12-10T07:34:36.692Z,1.42
2022-12-10T07:35:36.681Z,1.40
2022-12-10T07:36:36.655Z,1.42
2022-12-10T07:37:36.707Z,1.42
2022-12-10T07:38:36.660Z,1.41
2022-12-10T07:39:36.638Z,1.44
2022-12-10T07:40:36.615Z,1.44
2022-12-10T07:41:36.636Z,1.41
2022-12-10T07:42:36.596Z,1.47
2022-12-10T07:43:36.741Z,1.47
2022-12-10T07:44:36.581Z,1.41
2022-12-10T07:45:36.567Z,1.51
2022-12-10T07:46:36.595Z,1.52
2022-12-10T07:47:36.540Z,1.52
2022-12-10T07:48:36.526Z,1.42
2022-12-10T07:49:36.552Z,1.50
2022-12-10T07:50:36.507Z,1.47
2022-12-10T07:51:36.516Z,1.40
2022-12-10T07:52:36.490Z,1.47
2022-12-10T07:53:36.473Z,1.42
2022-12-10T07:54:36.503Z,1.37
2022-12-10T07:55:36.450Z,1.47
2022-12-10T07:56:36.498Z,1.42
2022-12-10T07:57:36.432Z,1.41
2022-12-10T07:58:36.432Z,1.47
2022-12-10T07:59:36.406Z,1.41
2022-12-10T08:00:36.435Z,1.44
2022-12-10T08:01:36.386Z,1.42
2022-12-10T08:02:36.470Z,1.41
2022-12-10T08:03:36.361Z,1.48
2022-12-10T08:04:36.352Z,1.41
2022-12-10T08:05:36.339Z,1.48
2022-12-10T08:06:36.350Z,1.48
2022-12-10T08:07:36.317Z,1.50
2022-12-10T08:08:36.454Z,1.41
2022-12-10T08:09:36.310Z,1.47
2022-12-10T08:10:36.313Z,1.40
2022-12-10T08:11:36.288Z,1.41
2022-12-10T08:12:36.263Z,1.42
2022-12-10T08:13:36.256Z,1.44
2022-12-10T08:14:36.312Z,1.40
2022-12-10T08:15:36.235Z,1.42
2022-12-10T08:16:36.262Z,1.42
2022-12-10T08:17:36.222Z,1.47
2022-12-10T08:18:36.204Z,1.41
2022-12-10T08:19:36.180Z,1.48
2022-12-10T08:20:36.221Z,1.44
2022-12-10T08:21:36.169Z,1.51
2022-12-10T08:22:36.161Z,1.41
2022-12-10T08:23:36.161Z,1.52
2022-12-10T08:24:36.135Z,1.54
2022-12-10T08:25:40.498Z,1.44
2022-12-10T08:26:36.158Z,1.54
2022-12-10T08:27:36.103Z,1.50
2022-12-10T08:28:36.095Z,1.52
2022-12-10T08:29:36.131Z,1.59
2022-12-10T08:30:36.079Z,1.58
2022-12-10T08:31:38.058Z,1.48
2022-12-10T08:32:36.154Z,1.40
2022-12-10T08:33:36.069Z,1.44
2022-12-10T08:34:36.033Z,1.47
2022-12-10T08:35:36.030Z,1.52
2022-12-10T08:36:36.026Z,1.59
2022-12-10T08:37:36.039Z,1.50
2022-12-10T08:38:35.989Z,1.52
2022-12-10T08:39:36.020Z,1.55
2022-12-10T08:40:35.967Z,1.63
2022-12-10T08:41:35.969Z,1.50
2022-12-10T08:42:35.965Z,1.63
2022-12-10T08:43:35.932Z,1.55
2022-12-10T08:44:35.916Z,1.59
2022-12-10T08:45:36.040Z,1.63
2022-12-10T08:46:35.903Z,1.65
2022-12-10T08:47:35.909Z,1.65
2022-12-10T08:48:35.887Z,1.65
2022-12-10T08:49:35.865Z,1.65
2022-12-10T08:50:35.869Z,1.66
2022-12-10T08:51:35.936Z,1.63
2022-12-10T08:52:35.838Z,1.68
2022-12-10T08:53:35.823Z,1.68
2022-12-10T08:54:35.814Z,1.70
2022-12-10T08:55:35.801Z,1.62
2022-12-10T08:56:35.811Z,1.77
2022-12-10T08:57:35.794Z,1.80
2022-12-10T08:58:35.790Z,1.84
2022-12-10T08:59:35.791Z,1.72
2022-12-10T09:00:35.782Z,1.69
2022-12-10T09:01:35.747Z,1.77
2022-12-10T09:02:35.804Z,1.70
2022-12-10T09:03:35.773Z,1.79
2022-12-10T09:04:35.711Z,1.76
2022-12-10T09:05:35.729Z,1.81
2022-12-10T09:06:35.760Z,1.79
2022-12-10T09:07:35.674Z,1.77
2022-12-10T09:08:35.668Z,1.83
2022-12-10T09:09:35.688Z,1.81
2022-12-10T09:10:35.653Z,1.80
2022-12-10T09:11:35.677Z,1.79
2022-12-10T09:12:35.663Z,1.80
2022-12-10T09:13:35.621Z,1.83
2022-12-10T09:14:35.623Z,1.70
2022-12-10T09:15:35.589Z,1.76
2022-12-10T09:16:35.666Z,1.73
2022-12-10T09:17:35.594Z,1.77
2022-12-10T09:18:35.576Z,1.83
2022-12-10T09:19:35.581Z,1.80
2022-12-10T09:20:35.550Z,1.79
2022-12-10T09:21:35.528Z,1.86
2022-12-10T09:22:35.523Z,1.79
2022-12-10T09:23:35.517Z,1.83
2022-12-10T09:24:35.536Z,1.81
2022-12-10T09:25:35.507Z,1.83
2022-12-10T09:26:35.527Z,1.86
2022-12-10T09:27:35.468Z,1.83
2022-12-10T09:28:35.452Z,1.86
2022-12-10T09:29:35.444Z,1.79
2022-12-10T09:30:35.458Z,1.72
2022-12-10T09:31:35.497Z,1.68
2022-12-10T09:32:35.444Z,1.59
2022-12-10T09:33:35.400Z,1.63
2022-12-10T09:34:35.394Z,1.69
2022-12-10T09:35:35.401Z,1.72
2022-12-10T09:36:35.391Z,1.62
2022-12-10T09:37:35.374Z,1.70
2022-12-10T09:38:35.378Z,1.70
2022-12-10T09:39:35.339Z,1.69
2022-12-10T09:40:35.378Z,1.63
2022-12-10T09:41:35.323Z,1.60
2022-12-10T09:42:35.317Z,1.60
2022-12-10T09:43:35.295Z,1.63
2022-12-10T09:44:35.318Z,1.72
2022-12-10T09:45:35.298Z,1.70
2022-12-10T09:46:35.304Z,1.60
2022-12-10T09:47:35.256Z,1.72
2022-12-10T09:48:35.239Z,1.83
2022-12-10T09:49:35.272Z,1.72
2022-12-10T09:50:35.241Z,1.80
2022-12-10T09:51:35.203Z,1.80
2022-12-10T09:52:35.212Z,1.83
2022-12-10T09:53:35.236Z,1.73
2022-12-10T09:54:35.181Z,1.83
2022-12-10T09:55:35.169Z,1.70
2022-12-10T09:56:35.194Z,1.79
2022-12-10T09:57:35.151Z,1.80
2022-12-10T09:58:35.152Z,1.84
2022-12-10T09:59:35.139Z,1.81
2022-12-10T10:00:35.120Z,1.83
2022-12-10T10:01:35.198Z,1.81
2022-12-10T10:02:35.195Z,1.84
2022-12-10T10:03:35.097Z,1.93
2022-12-10T10:04:35.074Z,1.95
2022-12-10T10:05:35.084Z,1.83
2022-12-10T10:06:35.057Z,1.84
2022-12-10T10:07:35.058Z,1.79
2022-12-10T10:08:35.031Z,1.84
2022-12-10T10:09:35.019Z,1.87
2022-12-10T10:10:35.038Z,1.83
2022-12-10T10:11:35.036Z,1.73
2022-12-10T10:12:35.000Z,1.69
2022-12-10T10:13:34.993Z,1.69
2022-12-10T10:14:34.967Z,1.69
2022-12-10T10:15:34.957Z,1.83
2022-12-10T10:16:35.044Z,1.72
2022-12-10T10:17:34.933Z,1.72
2022-12-10T10:18:34.953Z,1.70
2022-12-10T10:19:34.912Z,1.79
2022-12-10T10:20:34.964Z,1.70
2022-12-10T10:21:34.932Z,1.81
2022-12-10T10:22:34.884Z,1.83
2022-12-10T10:23:34.877Z,1.88
2022-12-10T10:24:34.858Z,1.87
2022-12-10T10:25:34.887Z,1.95
2022-12-10T10:26:34.892Z,2.00
2022-12-10T10:27:34.829Z,1.99
2022-12-10T10:28:34.813Z,1.95
2022-12-10T10:29:34.801Z,1.98
2022-12-10T10:30:34.884Z,1.86
2022-12-10T10:31:34.782Z,1.90
2022-12-10T10:32:34.823Z,1.87
2022-12-10T10:33:34.759Z,1.83
2022-12-10T10:34:34.769Z,1.83
2022-12-10T10:35:34.781Z,1.83
2022-12-10T10:36:34.732Z,1.79
2022-12-10T10:37:34.745Z,1.79
2022-12-10T10:38:34.709Z,1.86
2022-12-10T10:39:34.695Z,1.91
2022-12-10T10:40:34.766Z,1.93
2022-12-10T10:41:34.678Z,1.90
2022-12-10T10:42:34.673Z,1.93
2022-12-10T10:43:34.675Z,1.91
2022-12-10T10:44:34.650Z,1.91
2022-12-10T10:45:34.642Z,1.90
2022-12-10T10:46:34.689Z,1.91
2022-12-10T10:47:35.174Z,1.91
2022-12-10T10:48:34.617Z,1.98
2022-12-10T10:49:34.610Z,1.98
2022-12-10T10:50:34.610Z,1.91
2022-12-10T10:51:34.590Z,1.90
2022-12-10T10:52:34.593Z,1.88
2022-12-10T10:53:34.549Z,1.88
2022-12-10T10:54:34.548Z,1.81
2022-12-10T10:55:34.549Z,1.81
2022-12-10T10:56:34.536Z,1.95
2022-12-10T10:57:34.505Z,2.00
2022-12-10T10:58:34.520Z,1.84
2022-12-10T10:59:34.481Z,1.95
2022-12-10T11:00:34.500Z,1.90
2022-12-10T11:01:34.525Z,1.93
2022-12-10T11:02:34.549Z,1.93
2022-12-10T11:03:34.445Z,1.93
2022-12-10T11:04:34.505Z,1.93
2022-12-10T11:05:36.498Z,1.83
2022-12-10T11:06:34.431Z,1.90
2022-12-10T11:07:34.405Z,1.88
2022-12-10T11:08:34.405Z,1.86
2022-12-10T11:09:34.399Z,1.90
2022-12-10T11:10:34.422Z,1.95
2022-12-10T11:11:34.398Z,1.87
2022-12-10T11:12:34.344Z,1.91
2022-12-10T11:13:34.350Z,1.86
2022-12-10T11:14:39.812Z,1.87
2022-12-10T11:15:35.315Z,1.88
2022-12-10T11:16:34.369Z,1.86
2022-12-10T11:17:34.434Z,1.76
2022-12-10T11:18:34.292Z,1.60
2022-12-10T11:19:34.278Z,1.51
2022-12-10T11:20:41.658Z,1.51
2022-12-10T11:21:35.258Z,1.52
2022-12-10T11:22:34.258Z,1.51
2022-12-10T11:23:34.278Z,1.59
2022-12-10T11:24:34.254Z,1.58
2022-12-10T11:25:34.215Z,1.65
2022-12-10T11:26:38.154Z,1.68
2022-12-10T11:27:35.197Z,1.65
2022-12-10T11:28:34.198Z,1.62
2022-12-10T11:29:34.196Z,1.50
2022-12-10T11:30:34.197Z,1.62
2022-12-10T11:31:34.169Z,1.60
2022-12-10T11:32:34.143Z,1.62
2022-12-10T11:33:34.131Z,1.62
2022-12-10T11:34:34.158Z,1.66
2022-12-10T11:35:34.140Z,1.50
2022-12-10T11:36:34.092Z,1.58
2022-12-10T11:37:35.411Z,1.52
2022-12-10T11:38:34.094Z,1.54
2022-12-10T11:39:34.099Z,1.62
2022-12-10T11:40:34.049Z,1.69
2022-12-10T11:41:34.072Z,1.66
2022-12-10T11:42:34.037Z,1.70
2022-12-10T11:43:34.058Z,1.81
2022-12-10T11:44:34.011Z,1.80
2022-12-10T11:45:34.008Z,1.83
2022-12-10T11:46:34.029Z,1.90
2022-12-10T11:47:34.022Z,1.86
2022-12-10T11:48:38.984Z,1.84
2022-12-10T11:49:34.980Z,1.84
2022-12-10T11:50:33.953Z,1.83
2022-12-10T11:51:33.938Z,1.79
2022-12-10T11:52:33.926Z,1.84
2022-12-10T11:53:33.960Z,1.80
2022-12-10T11:54:33.924Z,1.95
2022-12-10T11:55:33.917Z,1.88
2022-12-10T11:56:33.888Z,1.95
2022-12-10T11:57:33.881Z,1.99
2022-12-10T11:58:33.869Z,2.02
2022-12-10T12:00:02.731Z,2.06
2022-12-10T12:00:34.870Z,2.02
2022-12-10T12:01:33.835Z,2.00
2022-12-10T12:02:33.924Z,2.03
2022-12-10T12:03:33.881Z,1.91
2022-12-10T12:04:33.811Z,1.95
2022-12-10T12:05:33.841Z,1.86
2022-12-10T12:06:33.777Z,1.83
2022-12-10T12:07:33.787Z,1.81
2022-12-10T12:08:33.783Z,1.70
2022-12-10T12:09:33.745Z,1.60
2022-12-10T12:10:52.448Z,1.70
2022-12-10T12:11:34.769Z,1.62
2022-12-10T12:12:33.710Z,1.52
2022-12-10T12:13:33.722Z,1.52
2022-12-10T12:14:33.694Z,1.52
2022-12-10T12:15:33.778Z,1.51
2022-12-10T12:16:33.675Z,1.48
2022-12-10T12:17:33.717Z,1.58
2022-12-10T12:18:33.673Z,1.52
2022-12-10T12:19:33.640Z,1.63
2022-12-10T12:20:33.620Z,1.66
2022-12-10T12:21:33.629Z,1.54
2022-12-10T12:22:33.611Z,1.51
2022-12-10T12:23:33.643Z,1.42
2022-12-10T12:24:33.609Z,1.47
2022-12-10T12:25:33.577Z,1.54
2022-12-10T12:26:33.584Z,1.51
2022-12-10T12:27:33.570Z,1.60
2022-12-10T12:28:33.555Z,1.62
2022-12-10T12:29:37.110Z,1.63
2022-12-10T12:30:33.524Z,1.66
2022-12-10T12:31:33.535Z,1.63
2022-12-10T12:32:33.498Z,1.62
2022-12-10T12:33:33.507Z,1.68
2022-12-10T12:34:33.505Z,1.54
2022-12-10T12:35:33.496Z,1.51
2022-12-10T12:36:33.468Z,1.48
2022-12-10T12:37:33.454Z,1.51
2022-12-10T12:38:33.449Z,1.51
2022-12-10T12:39:33.433Z,1.60
2022-12-10T12:40:33.417Z,1.66
2022-12-10T12:41:33.443Z,1.68
2022-12-10T12:42:33.414Z,1.72
2022-12-10T12:43:33.412Z,1.72
2022-12-10T12:44:33.374Z,1.77
2022-12-10T12:45:33.362Z,1.83
2022-12-10T12:46:33.400Z,1.80
2022-12-10T12:47:33.354Z,1.84
2022-12-10T12:48:33.337Z,1.81
2022-12-10T12:49:33.352Z,1.83
2022-12-10T12:50:33.311Z,1.88
2022-12-10T12:51:33.306Z,1.77
2022-12-10T12:52:33.294Z,1.70
2022-12-10T12:53:35.368Z,1.68
2022-12-10T12:54:33.274Z,1.65
2022-12-10T12:55:33.270Z,1.62
2022-12-10T12:56:33.261Z,1.68
2022-12-10T12:57:33.238Z,1.63
2022-12-10T12:58:33.244Z,1.69
2022-12-10T12:59:37.287Z,1.68
2022-12-10T13:00:33.203Z,1.63
2022-12-10T13:01:33.211Z,1.63
2022-12-10T13:02:33.248Z,1.76
2022-12-10T13:03:33.209Z,1.66
2022-12-10T13:04:33.165Z,1.68
2022-12-10T13:05:33.156Z,1.69
2022-12-10T13:06:33.144Z,1.70
2022-12-10T13:07:33.149Z,1.58
2022-12-10T13:08:33.130Z,1.63
2022-12-10T13:09:33.128Z,1.84
2022-12-10T13:10:33.113Z,1.84
2022-12-10T13:11:33.091Z,1.90
2022-12-10T13:12:33.084Z,1.95
2022-12-10T13:13:33.073Z,1.98
2022-12-10T13:14:33.076Z,1.88
2022-12-10T13:15:33.196Z,1.90
2022-12-10T13:16:33.035Z,1.90
2022-12-10T13:17:33.029Z,1.91
2022-12-10T13:18:33.015Z,1.98
2022-12-10T13:19:33.031Z,2.05
2022-12-10T13:20:33.001Z,1.98
2022-12-10T13:21:33.002Z,1.91
2022-12-10T13:22:32.976Z,1.88
2022-12-10T13:23:32.994Z,1.91
2022-12-10T13:24:32.954Z,1.79
2022-12-10T13:25:32.946Z,1.77
2022-12-10T13:26:32.931Z,1.88
2022-12-10T13:27:32.931Z,1.91
2022-12-10T13:28:32.914Z,1.98
2022-12-10T13:29:32.915Z,2.03
2022-12-10T13:30:32.903Z,2.06
2022-12-10T13:31:32.935Z,2.02
2022-12-10T13:32:32.866Z,2.12
2022-12-10T13:33:32.901Z,2.12
2022-12-10T13:34:32.872Z,2.05
2022-12-10T13:35:32.835Z,2.10
2022-12-10T13:36:32.825Z,2.17
2022-12-10T13:37:32.822Z,2.16
2022-12-10T13:38:32.799Z,2.16
2022-12-10T13:39:32.793Z,2.17
2022-12-10T13:40:32.801Z,2.17
2022-12-10T13:41:32.777Z,2.06
2022-12-10T13:42:32.761Z,2.10
2022-12-10T13:43:32.755Z,2.16
2022-12-10T13:44:32.736Z,2.06
2022-12-10T13:45:32.756Z,2.06
2022-12-10T13:46:32.814Z,2.07
2022-12-10T13:47:32.707Z,2.07
2022-12-10T13:48:32.695Z,2.14
2022-12-10T13:49:32.686Z,2.09
2022-12-10T13:50:32.670Z,2.18
2022-12-10T13:51:32.687Z,2.12
2022-12-10T13:52:32.663Z,2.06
2022-12-10T13:53:32.670Z,1.98
2022-12-10T13:54:32.627Z,2.02
2022-12-10T13:55:32.623Z,2.00
2022-12-10T13:56:32.621Z,2.05
2022-12-10T13:57:32.601Z,1.93
2022-12-10T13:58:32.588Z,1.98
2022-12-10T13:59:32.594Z,1.95
2022-12-10T14:00:32.588Z,1.93
2022-12-10T14:01:32.592Z,1.95
2022-12-10T14:02:32.559Z,1.91
2022-12-10T14:03:32.545Z,1.86
2022-12-10T14:04:32.561Z,1.93
2022-12-10T14:05:35.558Z,1.88
2022-12-10T14:06:33.525Z,1.95
2022-12-10T14:07:32.520Z,1.86
2022-12-10T14:08:32.534Z,1.86
2022-12-10T14:09:32.468Z,1.83
2022-12-10T14:10:32.461Z,1.86
2022-12-10T14:11:37.261Z,1.69
2022-12-10T14:12:33.447Z,1.79
2022-12-10T14:13:32.448Z,1.69
2022-12-10T14:14:32.414Z,1.79
2022-12-10T14:15:32.432Z,1.70
2022-12-10T14:16:32.447Z,1.81
2022-12-10T14:17:32.400Z,1.84
2022-12-10T14:18:32.395Z,1.80
2022-12-10T14:19:32.403Z,1.84
2022-12-10T14:20:32.354Z,1.80
2022-12-10T14:21:32.347Z,1.83
2022-12-10T14:22:32.341Z,1.80
2022-12-10T14:23:32.334Z,1.76
2022-12-10T14:24:32.308Z,1.77
2022-12-10T14:25:32.327Z,1.73
2022-12-10T14:26:32.289Z,1.70
2022-12-10T14:27:32.283Z,1.79
2022-12-10T14:28:32.266Z,1.84
2022-12-10T14:29:32.275Z,1.81
2022-12-10T14:30:32.268Z,1.83
2022-12-10T14:31:32.324Z,1.83
2022-12-10T14:32:32.226Z,1.83
2022-12-10T14:33:32.241Z,1.83
2022-12-10T14:34:32.245Z,1.84
2022-12-10T14:35:32.200Z,1.84
2022-12-10T14:36:32.222Z,1.83
2022-12-10T14:37:32.179Z,1.70
2022-12-10T14:38:32.185Z,1.69
2022-12-10T14:39:32.201Z,1.73
2022-12-10T14:40:32.150Z,1.65
2022-12-10T14:41:37.479Z,1.72
2022-12-10T14:42:33.135Z,1.59
2022-12-10T14:43:32.118Z,1.62
2022-12-10T14:44:32.096Z,1.69
2022-12-10T14:45:32.116Z,1.70
2022-12-10T14:46:32.183Z,1.79
2022-12-10T14:47:32.066Z,1.69
2022-12-10T14:48:32.107Z,1.83
2022-12-10T14:49:32.050Z,1.79
2022-12-10T14:50:32.063Z,1.86
2022-12-10T14:51:32.050Z,1.83
2022-12-10T14:52:32.016Z,1.69
2022-12-10T14:53:32.020Z,1.60
2022-12-10T14:54:32.008Z,1.69
2022-12-10T14:55:31.988Z,1.65
2022-12-10T14:56:31.997Z,1.52
2022-12-10T14:57:31.961Z,1.51
2022-12-10T14:58:33.950Z,1.51
2022-12-10T14:59:32.936Z,1.50
2022-12-10T15:00:31.945Z,1.51
2022-12-10T15:01:31.919Z,1.51
2022-12-10T15:02:31.995Z,1.50
2022-12-10T15:03:32.030Z,1.59
2022-12-10T15:04:31.940Z,1.59
2022-12-10T15:05:31.888Z,1.62
2022-12-10T15:06:31.892Z,1.65
2022-12-10T15:07:31.889Z,1.60
2022-12-10T15:08:31.844Z,1.60
2022-12-10T15:09:31.844Z,1.70
2022-12-10T15:10:31.822Z,1.68
2022-12-10T15:11:31.816Z,1.65
2022-12-10T15:12:31.806Z,1.66
2022-12-10T15:13:31.816Z,1.68
2022-12-10T15:14:31.796Z,1.63
2022-12-10T15:15:31.774Z,1.63
2022-12-10T15:16:31.887Z,1.66
2022-12-10T15:17:31.755Z,1.69
2022-12-10T15:18:31.743Z,1.59
2022-12-10T15:19:31.772Z,1.62
2022-12-10T15:20:31.741Z,1.63
2022-12-10T15:21:31.720Z,1.69
2022-12-10T15:22:36.983Z,1.69
2022-12-10T15:23:32.731Z,1.62
2022-12-10T15:24:31.683Z,1.55
2022-12-10T15:25:31.698Z,1.50
2022-12-10T15:26:31.654Z,1.62
2022-12-10T15:27:31.655Z,1.48
2022-12-10T15:28:31.635Z,1.54
2022-12-10T15:29:31.650Z,1.54
2022-12-10T15:30:31.629Z,1.41
2022-12-10T15:31:31.686Z,1.22
2022-12-10T15:32:31.586Z,1.33
2022-12-10T15:33:31.574Z,1.16
2022-12-10T15:34:31.577Z,1.27
2022-12-10T15:35:31.557Z,1.27
2022-12-10T15:36:31.621Z,1.27
2022-12-10T15:37:31.597Z,1.29
2022-12-10T15:38:31.546Z,1.32
2022-12-10T15:39:31.515Z,1.32
2022-12-10T15:40:31.519Z,1.23
2022-12-10T15:41:31.581Z,1.34
2022-12-10T15:42:31.486Z,1.32
2022-12-10T15:43:31.490Z,1.33
2022-12-10T15:44:31.457Z,1.30
2022-12-10T15:45:31.542Z,1.33
2022-12-10T15:46:31.454Z,1.37
2022-12-10T15:47:31.443Z,1.40
2022-12-10T15:48:31.436Z,1.44
2022-12-10T15:49:31.422Z,1.44
2022-12-10T15:50:31.428Z,1.52
2022-12-10T15:51:31.400Z,1.50
2022-12-10T15:52:31.410Z,1.52
2022-12-10T15:53:35.507Z,1.40
2022-12-10T15:54:31.378Z,1.45
2022-12-10T15:55:31.363Z,1.51
2022-12-10T15:56:31.330Z,1.48
2022-12-10T15:57:31.326Z,1.45
2022-12-10T15:58:31.343Z,1.48
2022-12-10T15:59:31.293Z,1.52
2022-12-10T16:00:31.296Z,1.47
2022-12-10T16:01:31.340Z,1.44
2022-12-10T16:02:31.321Z,1.42
2022-12-10T16:03:31.262Z,1.41
2022-12-10T16:04:31.252Z,1.42
2022-12-10T16:05:31.233Z,1.47
2022-12-10T16:06:31.234Z,1.48
2022-12-10T16:07:31.267Z,1.48
2022-12-10T16:08:31.259Z,1.50
2022-12-10T16:09:31.200Z,1.45
2022-12-10T16:10:31.206Z,1.50
2022-12-10T16:11:31.179Z,1.51
2022-12-10T16:12:33.656Z,1.55
2022-12-10T16:13:32.177Z,1.48
2022-12-10T16:14:31.159Z,1.37
2022-12-10T16:15:31.131Z,1.41
2022-12-10T16:16:31.154Z,1.27
2022-12-10T16:17:31.128Z,1.20
2022-12-10T16:18:34.218Z,1.05
2022-12-10T16:19:31.109Z,1.23
2022-12-10T16:20:31.112Z,1.29
2022-12-10T16:21:31.079Z,1.24
2022-12-10T16:22:31.072Z,1.29
2022-12-10T16:23:31.066Z,1.29
2022-12-10T16:24:31.043Z,1.33
2022-12-10T16:25:31.041Z,1.32
2022-12-10T16:26:31.077Z,1.30
2022-12-10T16:27:31.005Z,1.24
2022-12-10T16:28:31.027Z,1.26
2022-12-10T16:29:30.995Z,1.29
2022-12-10T16:30:35.988Z,1.26
2022-12-10T16:31:32.070Z,1.32
2022-12-10T16:32:30.947Z,1.29
2022-12-10T16:33:30.997Z,1.36
2022-12-10T16:34:30.933Z,1.37
2022-12-10T16:35:30.921Z,1.32
2022-12-10T16:36:30.912Z,1.30
2022-12-10T16:37:30.889Z,1.29
2022-12-10T16:38:30.885Z,1.27
2022-12-10T16:39:31.228Z,1.24
2022-12-10T16:40:30.866Z,1.23
2022-12-10T16:41:30.854Z,1.29
2022-12-10T16:42:30.870Z,1.29
2022-12-10T16:43:30.828Z,1.26
2022-12-10T16:44:30.854Z,1.29
2022-12-10T16:45:30.899Z,1.30
2022-12-10T16:46:30.803Z,1.24
2022-12-10T16:47:30.792Z,1.24
2022-12-10T16:48:30.790Z,1.23
2022-12-10T16:49:30.764Z,1.23
2022-12-10T16:50:30.777Z,1.23
2022-12-10T16:51:30.755Z,1.20
2022-12-10T16:52:30.733Z,1.26
2022-12-10T16:53:30.748Z,1.22
2022-12-10T16:54:30.722Z,1.27
2022-12-10T16:55:30.706Z,1.30
2022-12-10T16:56:30.722Z,1.27
2022-12-10T16:57:35.416Z,1.20
2022-12-10T16:58:31.692Z,1.26
2022-12-10T16:59:30.696Z,1.18
2022-12-10T17:00:30.681Z,1.23
2022-12-10T17:01:30.690Z,1.22
2022-12-10T17:02:30.686Z,1.24
2022-12-10T17:03:30.655Z,1.26
2022-12-10T17:04:30.613Z,1.24
2022-12-10T17:05:30.613Z,1.32
2022-12-10T17:06:30.597Z,1.27
2022-12-10T17:07:30.617Z,1.33
2022-12-10T17:08:30.636Z,1.26
2022-12-10T17:09:30.563Z,1.24
2022-12-10T17:10:30.555Z,1.29
2022-12-10T17:11:30.540Z,1.26
2022-12-10T17:12:30.544Z,1.29
2022-12-10T17:13:30.532Z,1.30
2022-12-10T17:14:30.525Z,1.26
2022-12-10T17:15:30.556Z,1.30
2022-12-10T17:16:30.517Z,1.26
2022-12-10T17:17:30.465Z,1.32
2022-12-10T17:18:30.460Z,1.34
2022-12-10T17:19:30.495Z,1.26
2022-12-10T17:20:30.445Z,1.26
2022-12-10T17:21:34.309Z,1.36
2022-12-10T17:22:31.420Z,1.33
2022-12-10T17:23:30.405Z,1.18
2022-12-10T17:24:30.396Z,1.27
2022-12-10T17:25:30.420Z,1.26
2022-12-10T17:26:30.380Z,1.22
2022-12-10T17:27:35.701Z,1.24
2022-12-10T17:28:31.367Z,1.20
2022-12-10T17:29:30.338Z,1.30
2022-12-10T17:30:30.351Z,1.26
2022-12-10T17:31:30.367Z,1.27
2022-12-10T17:32:30.317Z,1.23
2022-12-10T17:33:30.302Z,1.23
2022-12-10T17:34:30.306Z,1.22
2022-12-10T17:35:30.273Z,1.23
2022-12-10T17:36:30.270Z,1.16
2022-12-10T17:37:30.258Z,1.27
2022-12-10T17:38:30.270Z,1.23
2022-12-10T17:39:30.231Z,1.26
2022-12-10T17:40:30.248Z,1.23
2022-12-10T17:41:30.224Z,1.11
2022-12-10T17:42:30.202Z,1.14
2022-12-10T17:43:30.194Z,1.09
2022-12-10T17:44:30.227Z,1.11
2022-12-10T17:45:30.233Z,1.02
2022-12-10T17:46:30.193Z,1.08
2022-12-10T17:47:30.168Z,1.04
2022-12-10T17:48:30.135Z,1.00
2022-12-10T17:49:30.161Z,1.11
2022-12-10T17:50:32.364Z,1.08
2022-12-10T17:51:30.100Z,1.09
2022-12-10T17:52:30.121Z,1.14
2022-12-10T17:53:30.078Z,1.15
2022-12-10T17:54:30.073Z,1.18
2022-12-10T17:55:30.090Z,1.04
2022-12-10T17:56:30.056Z,1.12
2022-12-10T17:57:30.037Z,1.20
2022-12-10T17:58:30.022Z,1.14
2022-12-10T17:59:30.030Z,1.14
2022-12-10T18:00:30.010Z,1.09
2022-12-10T18:01:30.084Z,1.08
2022-12-10T18:02:30.047Z,1.14
2022-12-10T18:03:29.968Z,1.14
2022-12-10T18:04:29.964Z,1.11
2022-12-10T18:05:29.971Z,1.11
2022-12-10T18:06:29.955Z,1.06
2022-12-10T18:07:29.935Z,1.08
2022-12-10T18:08:30.020Z,1.02
2022-12-10T18:09:29.908Z,1.05
2022-12-10T18:10:29.902Z,1.06
2022-12-10T18:11:29.902Z,0.96
2022-12-10T18:12:29.892Z,0.86
2022-12-10T18:13:29.880Z,0.75
2022-12-10T18:14:29.858Z,0.79
2022-12-10T18:15:29.857Z,0.83
2022-12-10T18:16:29.883Z,0.75
2022-12-10T18:17:29.822Z,0.87
2022-12-10T18:18:29.858Z,0.87
2022-12-10T18:19:29.799Z,0.87
2022-12-10T18:20:29.787Z,0.87
2022-12-10T18:21:29.796Z,0.78
2022-12-10T18:22:29.772Z,0.76
2022-12-10T18:23:29.781Z,0.55
2022-12-10T18:24:29.774Z,0.55
2022-12-10T18:25:29.740Z,0.53
2022-12-10T18:26:29.722Z,0.46
2022-12-10T18:27:29.714Z,0.51
2022-12-10T18:28:29.703Z,0.58
2022-12-10T18:29:29.716Z,0.55
2022-12-10T18:30:29.768Z,0.65
2022-12-10T18:31:29.762Z,0.66
2022-12-10T18:32:29.661Z,0.60
2022-12-10T18:33:29.675Z,0.73
2022-12-10T18:34:29.662Z,0.76
2022-12-10T18:35:29.625Z,0.69
2022-12-10T18:36:29.639Z,0.68
2022-12-10T18:37:29.607Z,0.65
2022-12-10T18:38:29.596Z,0.66
2022-12-10T18:39:29.635Z,0.68
2022-12-10T18:40:29.587Z,0.69
2022-12-10T18:41:29.558Z,0.66
2022-12-10T18:42:29.582Z,0.65
2022-12-10T18:43:29.538Z,0.68
2022-12-10T18:44:29.533Z,0.68
2022-12-10T18:45:29.545Z,0.68
2022-12-10T18:46:29.563Z,0.68
2022-12-10T18:47:29.524Z,0.75
2022-12-10T18:48:29.491Z,0.69